Главная страница
METAR-TAF:

METAR-TAF

Аэропорты :

Амман, Иордания

широта: 31-59N, долгота: 035-59E, высота над уровнем моря: 767 м

Текущие метеонаблюдения

Эта сводка был подготовлена 18 минут назад, в 07:00 UTC
Штиль
Температура 17°C
Влажность 36%
Давление 1017 hPa
Видимость: 6000 м

METAR: OJAM 230700Z 00000KT 6000 NSC 17/02 Q1017 NOSIG

Время: 10:18 (07:18 UTC)

Прогноз

Эта сводка был подготовлена 2 часа и 28 минут назад, в 04:50 UTC
Прогноз действительный с 23-го 06 UTC до 24-го 12 UTC
Ветер 10 Узел от западно-северо-западный
Видимость: 5000 м
мгла
изменения
С 23-го 18 UTC до 23-го 20 UTC
Ветер 6 Узел от северо-западный
Видимость: 6000 м
временами
С 24-го 01 UTC до 24-го 05 UTC
Ветер 2 Узел переменных направлений
Видимость: 3000 м
дым
изменения
С 24-го 06 UTC до 24-го 08 UTC
Ветер 10 Узел от восточный
Видимость: 5000 м
мгла

TAF: OJAM 230450Z 2306/2412 29010KT 5000 HZ NSC BECMG 2318/2320 32006KT 6000 NSC TEMPO 2401/2405 VRB02KT 3000 FU BECMG 2406/2408 10010KT 5000 HZ NSC

Метеонаблюдения и прогнозы для более 4000 аэропортов (сводки METAR и TAF).

Имеющиеся станции представлены на карте желтыми и красными точками.

Чтобы увидеть название станции, наведите на нее мышь.

Затем щелкните, чтобы увидеть метеонаблюдения и метеопрогнозы.

Управление картой: чтобы увеличить масштаб, щелкните зеленые кнопки с черным крестиком; чтобы уменьшить масштаб, щелкните зеленую кнопку с тире; для просмотра соседних карт щелкайте зеленые стрелки.


METAR-TAF: